Time;durP1;ratioP1;P1;durP2;ratioP2;P2;SDS_P1;SDS_P2;PMS_P1;PMS_P2;Temp;Humidity;BMP_temperature;BMP_pressure;BME280_temperature;BME280_humidity;BME280_pressure;Samples;Min_cycle;Max_cycle;Signal;HPM_P1;HPM_P2
2021/01/21 00:01:39;;;;;;;1.92;0.30;;;22.30;78.20;;;;;;4922711;29;20042;-76
2021/01/21 00:04:06;;;;;;;2.42;0.32;;;22.20;78.60;;;;;;4922672;29;20745;-81
2021/01/21 00:06:34;;;;;;;4.05;0.55;;;21.90;79.20;;;;;;4921222;29;20477;-78
2021/01/21 00:09:01;;;;;;;2.25;0.22;;;21.70;79.50;;;;;;4921935;29;20039;-78
2021/01/21 00:11:28;;;;;;;8.13;0.82;;;21.70;79.70;;;;;;4922706;29;20297;-75
2021/01/21 00:13:54;;;;;;;4.18;0.55;;;21.70;79.90;;;;;;4922596;29;20028;-77
2021/01/21 00:16:21;;;;;;;2.10;0.47;;;21.70;80.30;;;;;;4920307;29;20028;-78
2021/01/21 00:18:48;;;;;;;4.28;0.52;;;21.40;80.10;;;;;;4920132;29;20035;-76
2021/01/21 00:21:14;;;;;;;3.40;0.65;;;21.40;81.10;;;;;;4921699;29;20042;-76
2021/01/21 00:23:41;;;;;;;5.75;0.85;;;21.30;81.30;;;;;;4922826;29;20054;-76
2021/01/21 00:26:08;;;;;;;3.80;0.30;;;21.20;81.10;;;;;;4921652;29;20067;-76
2021/01/21 00:28:34;;;;;;;0.57;0.20;;;21.20;81.30;;;;;;4922268;29;20082;-72
2021/01/21 00:31:01;;;;;;;10.95;0.32;;;21.20;80.60;;;;;;4922135;29;20036;-71
2021/01/21 00:33:28;;;;;;;3.83;0.40;;;21.30;82.60;;;;;;4920654;29;20036;-74
2021/01/21 00:35:54;;;;;;;0.77;0.28;;;21.20;81.10;;;;;;4928308;29;20036;-77
2021/01/21 00:38:21;;;;;;;2.50;0.25;;;21.00;81.00;;;;;;4924978;29;20047;-74
2021/01/21 00:40:47;;;;;;;1.02;0.28;;;20.80;81.40;;;;;;4925228;29;21294;-74
2021/01/21 00:43:14;;;;;;;3.03;0.35;;;20.80;81.90;;;;;;4925603;29;20055;-74
2021/01/21 00:45:41;;;;;;;4.63;0.30;;;20.60;82.30;;;;;;4925286;29;20143;-74
2021/01/21 00:48:07;;;;;;;6.22;0.30;;;20.60;81.90;;;;;;4922824;29;20063;-73
2021/01/21 00:50:34;;;;;;;2.20;0.20;;;20.50;82.10;;;;;;4925469;29;20465;-74
2021/01/21 00:53:01;;;;;;;1.85;0.45;;;20.30;82.40;;;;;;4926360;29;20485;-76
2021/01/21 00:55:27;;;;;;;0.65;0.10;;;20.20;82.40;;;;;;4924266;29;20039;-75
2021/01/21 00:57:54;;;;;;;1.33;0.20;;;20.10;82.20;;;;;;4923384;29;20032;-76
2021/01/21 01:00:21;;;;;;;0.80;0.20;;;20.00;82.50;;;;;;4925567;29;20036;-78
2021/01/21 01:02:47;;;;;;;3.33;0.40;;;20.00;83.00;;;;;;4925423;29;20095;-80
2021/01/21 01:05:14;;;;;;;3.30;0.30;;;19.90;83.60;;;;;;4924952;29;20031;-80
2021/01/21 01:07:41;;;;;;;1.73;0.20;;;19.80;84.00;;;;;;4926576;29;20042;-79
2021/01/21 01:10:08;;;;;;;1.20;0.20;;;19.60;84.20;;;;;;4926130;29;20031;-78
2021/01/21 01:12:36;;;;;;;1.17;0.20;;;19.60;84.40;;;;;;4926903;29;20398;-79
2021/01/21 01:15:06;;;;;;;3.78;0.10;;;19.50;83.90;;;;;;4925200;29;20360;-78
2021/01/21 01:17:32;;;;;;;1.02;0.43;;;19.50;84.20;;;;;;4924155;29;20119;-78
2021/01/21 01:19:59;;;;;;;0.32;0.10;;;19.50;84.20;;;;;;4922847;29;20036;-78
2021/01/21 01:22:25;;;;;;;1.58;0.25;;;19.50;84.60;;;;;;4925048;29;20436;-82
2021/01/21 01:24:52;;;;;;;2.03;0.20;;;19.30;84.30;;;;;;4923597;29;20051;-76
2021/01/21 01:27:19;;;;;;;1.85;0.40;;;19.30;84.60;;;;;;4922616;29;20147;-76
2021/01/21 01:29:46;;;;;;;0.70;0.20;;;19.20;85.50;;;;;;4926125;29;20031;-79
2021/01/21 01:32:13;;;;;;;0.45;0.22;;;19.00;86.60;;;;;;4925943;29;20106;-74
2021/01/21 01:34:39;;;;;;;4.53;0.65;;;18.80;87.50;;;;;;4929027;29;20028;-76
2021/01/21 01:37:06;;;;;;;6.25;0.35;;;18.80;87.80;;;;;;4929905;29;20099;-77
2021/01/21 01:39:32;;;;;;;1.42;0.22;;;18.90;87.80;;;;;;4924498;29;20032;-73
2021/01/21 01:41:59;;;;;;;2.08;0.75;;;18.90;86.70;;;;;;4922419;29;20028;-76
2021/01/21 01:44:26;;;;;;;1.27;0.10;;;18.80;87.60;;;;;;4924586;29;20035;-75
2021/01/21 01:46:53;;;;;;;2.72;0.65;;;18.80;87.70;;;;;;4922410;29;20036;-73
2021/01/21 01:49:20;;;;;;;3.45;1.55;;;18.60;88.00;;;;;;4927090;29;20042;-73
2021/01/21 01:51:47;;;;;;;7.82;1.52;;;18.50;87.90;;;;;;4924763;29;20060;-74
2021/01/21 01:54:13;;;;;;;4.55;0.80;;;18.30;88.20;;;;;;4923547;29;20480;-73
2021/01/21 01:56:40;;;;;;;3.15;0.95;;;18.30;88.60;;;;;;4923670;29;20363;-73
2021/01/21 01:59:06;;;;;;;0.38;0.20;;;18.20;88.10;;;;;;4924883;29;20031;-72
2021/01/21 02:01:35;;;;;;;0.95;0.30;;;18.30;88.10;;;;;;4922976;29;20035;-73
2021/01/21 02:04:01;;;;;;;2.87;1.07;;;18.30;87.50;;;;;;4921507;29;20039;-74
2021/01/21 02:06:28;;;;;;;3.47;0.40;;;18.40;87.70;;;;;;4924493;29;20090;-71
2021/01/21 02:08:57;;;;;;;1.92;0.98;;;18.30;88.70;;;;;;4924786;29;20060;-75
2021/01/21 02:11:37;;;;;;;;;;;18.20;89.30;;;;;;4927485;29;20088;-76
2021/01/21 02:15:05;;;;;;;1.95;0.40;;;18.20;88.40;;;;;;4922947;29;19914;-74
2021/01/21 02:17:47;;;;;;;1.67;0.30;;;18.30;88.20;;;;;;4856929;29;20049;-71
2021/01/21 02:21:00;;;;;;;2.80;0.50;;;18.20;88.20;;;;;;4923360;29;20422;-71
2021/01/21 02:23:55;;;;;;;2.65;0.40;;;18.10;88.50;;;;;;4866917;29;20120;-73
2021/01/21 02:26:31;;;;;;;2.88;0.30;;;17.90;88.80;;;;;;4923627;29;20032;-74
2021/01/21 02:29:17;;;;;;;12.35;0.50;;;17.90;88.90;;;;;;4927685;29;20813;-74
2021/01/21 02:32:08;;;;;;;4.57;0.30;;;17.80;88.80;;;;;;4923404;29;20028;-72
2021/01/21 02:35:02;;;;;;;1.60;0.45;;;17.80;88.70;;;;;;4923531;29;20357;-73
2021/01/21 02:37:30;;;;;;;1.48;0.43;;;17.80;88.70;;;;;;4927734;29;20046;-76
2021/01/21 02:39:59;;;;;;;1.42;0.30;;;17.70;89.90;;;;;;4923201;29;20039;-73
2021/01/21 02:42:26;;;;;;;;;;;17.60;90.00;;;;;;4924786;29;20035;-72
2021/01/21 02:44:53;;;;;;;0.70;0.40;;;17.50;90.60;;;;;;4924560;29;20013;-73
2021/01/21 02:47:21;;;;;;;3.20;0.30;;;17.40;90.40;;;;;;4923759;29;20051;-75
2021/01/21 02:49:49;;;;;;;3.60;0.40;;;17.40;90.30;;;;;;4922940;29;20114;-74
2021/01/21 02:52:32;;;;;;;0.90;0.50;;;17.40;90.10;;;;;;4925358;29;20031;-74
2021/01/21 02:55:36;;;;;;;2.08;0.30;;;17.50;89.90;;;;;;4923741;29;20343;-73
2021/01/21 02:58:42;;;;;;;1.63;0.40;;;17.60;89.80;;;;;;4921119;29;20042;-75
2021/01/21 03:01:09;;;;;;;15.63;2.28;;;17.60;90.00;;;;;;4920526;29;20087;-73
2021/01/21 03:03:39;;;;;;;17.27;2.70;;;17.20;92.20;;;;;;4923038;29;20024;-75
2021/01/21 03:06:06;;;;;;;2.45;0.50;;;17.00;92.90;;;;;;4923504;29;20024;-74
2021/01/21 03:08:33;;;;;;;4.30;0.85;;;16.80;91.70;;;;;;4922219;29;20028;-73
2021/01/21 03:11:14;;;;;;;1.15;0.40;;;16.60;92.60;;;;;;4921662;29;20053;-73
2021/01/21 03:13:45;;;;;;;3.97;0.55;;;16.40;93.00;;;;;;4923713;29;20132;-72
2021/01/21 03:16:12;;;;;;;3.72;0.65;;;16.30;93.30;;;;;;4923816;29;20454;-75
2021/01/21 03:18:39;;;;;;;1.25;0.50;;;16.30;93.50;;;;;;4923081;29;20421;-73
2021/01/21 03:21:05;;;;;;;1.27;0.40;;;16.20;93.30;;;;;;4922776;29;20043;-74
2021/01/21 03:23:41;;;;;;;1.85;0.30;;;16.20;93.40;;;;;;4922676;29;20051;-72
2021/01/21 03:26:09;;;;;;;4.10;0.45;;;16.20;93.40;;;;;;4921348;29;20027;-71
2021/01/21 03:28:36;;;;;;;1.55;0.40;;;16.20;93.40;;;;;;4921518;29;20040;-72
2021/01/21 03:31:02;;;;;;;1.33;0.60;;;16.10;94.50;;;;;;4917064;29;20036;-73
2021/01/21 03:33:29;;;;;;;0.50;0.30;;;16.10;94.50;;;;;;4920102;29;20028;-73
2021/01/21 03:35:56;;;;;;;0.32;0.32;;;16.10;94.30;;;;;;4920920;29;20039;-70
2021/01/21 03:38:22;;;;;;;2.10;0.50;;;16.20;93.50;;;;;;4922037;29;20067;-71
2021/01/21 03:40:49;;;;;;;0.30;0.20;;;16.20;93.40;;;;;;4920066;29;20036;-71
2021/01/21 03:43:16;;;;;;;2.95;0.30;;;16.10;94.30;;;;;;4920495;29;20382;-71
2021/01/21 03:45:42;;;;;;;1.23;0.40;;;16.00;94.90;;;;;;4922131;29;20043;-71
2021/01/21 03:48:09;;;;;;;0.77;0.20;;;15.90;94.90;;;;;;4921416;29;20055;-71
2021/01/21 03:50:36;;;;;;;1.63;0.45;;;16.00;95.00;;;;;;4921616;29;20024;-72
2021/01/21 03:53:03;;;;;;;1.30;0.40;;;15.90;95.40;;;;;;4921226;29;20127;-71
2021/01/21 03:55:33;;;;;;;8.13;0.57;;;15.80;95.10;;;;;;4918004;29;20024;-72
2021/01/21 03:57:59;;;;;;;0.93;0.40;;;16.00;94.10;;;;;;4920213;29;20032;-68
2021/01/21 04:00:32;;;;;;;1.48;0.30;;;16.20;93.50;;;;;;4921977;29;20433;-70
2021/01/21 04:02:59;;;;;;;3.97;0.40;;;16.40;93.20;;;;;;4922513;29;20470;-69
2021/01/21 04:05:26;;;;;;;4.03;0.40;;;16.40;94.20;;;;;;4922709;29;20111;-69
2021/01/21 04:07:52;;;;;;;5.13;0.60;;;16.30;94.30;;;;;;4921146;29;20135;-70
2021/01/21 04:10:19;;;;;;;5.60;0.40;;;16.20;95.00;;;;;;4926051;29;20036;-70
2021/01/21 04:12:45;;;;;;;0.70;0.40;;;16.10;95.10;;;;;;4925599;29;20047;-73
2021/01/21 04:15:12;;;;;;;2.10;0.40;;;16.20;95.20;;;;;;4927541;29;20038;-72
2021/01/21 04:17:39;;;;;;;1.63;0.50;;;16.20;95.30;;;;;;4923557;29;20028;-72
2021/01/21 04:20:06;;;;;;;6.10;0.50;;;16.10;94.90;;;;;;4924239;29;20027;-70
2021/01/21 04:22:33;;;;;;;3.85;0.60;;;16.10;95.20;;;;;;4924792;29;20059;-70
2021/01/21 04:24:59;;;;;;;2.78;0.50;;;16.10;95.50;;;;;;4924212;29;20043;-70
2021/01/21 04:27:26;;;;;;;5.90;0.40;;;16.00;95.90;;;;;;4926010;29;20046;-71
2021/01/21 04:29:53;;;;;;;3.88;0.50;;;16.10;96.10;;;;;;4922810;29;20091;-73
2021/01/21 04:32:19;;;;;;;1.95;0.50;;;16.00;95.90;;;;;;4924540;29;20096;-71
2021/01/21 04:34:46;;;;;;;5.15;0.80;;;16.00;95.60;;;;;;4924500;29;20111;-72
2021/01/21 04:37:13;;;;;;;4.97;0.50;;;16.00;95.40;;;;;;4924202;29;20035;-71
2021/01/21 04:39:40;;;;;;;1.20;0.50;;;16.00;95.20;;;;;;4922919;29;20508;-72
2021/01/21 04:42:07;;;;;;;0.98;0.60;;;16.10;95.20;;;;;;4925266;29;20035;-73
2021/01/21 04:44:33;;;;;;;3.60;0.60;;;16.10;95.50;;;;;;4937611;29;20668;-72
2021/01/21 04:49:41;;;;;;;1.88;0.55;;;16.10;94.90;;;;;;5258686;23;20050;-73
2021/01/21 04:52:10;;;;;;;2.47;0.50;;;16.10;95.40;;;;;;4980615;28;20030;-72
2021/01/21 04:54:42;;;;;;;1.15;0.30;;;16.00;95.60;;;;;;4980761;28;20519;-72
2021/01/21 04:57:15;;;;;;;0.77;0.30;;;16.00;95.10;;;;;;4978981;28;20031;-71
2021/01/21 04:59:42;;;;;;;3.63;0.70;;;16.00;95.30;;;;;;4978757;28;20027;-70
2021/01/21 05:02:09;;;;;;;2.03;0.50;;;16.00;95.10;;;;;;4979550;28;20110;-73
2021/01/21 05:04:37;;;;;;;4.97;0.50;;;15.90;94.60;;;;;;4980596;28;20039;-72
2021/01/21 05:07:04;;;;;;;4.13;0.50;;;16.10;94.20;;;;;;4979859;28;20440;-71
2021/01/21 05:09:32;;;;;;;4.75;0.40;;;16.20;94.60;;;;;;4980849;28;20121;-75
2021/01/21 05:11:58;;;;;;;2.20;0.55;;;16.20;94.30;;;;;;4980171;28;20038;-72
2021/01/21 05:14:46;;;;;;;1.27;0.40;;;16.10;94.40;;;;;;4978831;28;20026;-72
2021/01/21 05:17:13;;;;;;;1.45;0.88;;;16.20;94.10;;;;;;4994699;28;20825;-72
2021/01/21 05:19:39;;;;;;;4.13;0.93;;;16.20;94.30;;;;;;4981851;28;20062;-71
2021/01/21 05:22:06;;;;;;;5.30;1.40;;;16.30;94.00;;;;;;4981014;28;20510;-70
2021/01/21 05:24:33;;;;;;;1.27;0.75;;;16.30;94.30;;;;;;4979933;28;20029;-69
2021/01/21 05:26:59;;;;;;;2.60;0.68;;;16.40;93.90;;;;;;4981802;28;20031;-72
2021/01/21 05:29:26;;;;;;;2.90;0.95;;;16.50;93.30;;;;;;4981220;28;20034;-72
2021/01/21 05:31:55;;;;;;;2.65;0.60;;;16.50;93.30;;;;;;4980686;28;20594;-74
2021/01/21 05:34:22;;;;;;;4.07;1.60;;;16.40;94.00;;;;;;4978506;28;20050;-72
2021/01/21 05:36:48;;;;;;;0.77;0.50;;;16.30;94.50;;;;;;4980575;28;20037;-69
2021/01/21 05:39:17;;;;;;;1.52;0.65;;;16.30;94.90;;;;;;4978006;28;20058;-71
2021/01/21 05:41:44;;;;;;;1.63;0.40;;;16.30;94.40;;;;;;4958824;28;20073;-71
2021/01/21 05:44:16;;;;;;;4.50;0.80;;;16.40;94.40;;;;;;4958925;28;20061;-70
2021/01/21 05:46:45;;;;;;;3.33;0.85;;;16.30;95.20;;;;;;4962504;28;20058;-70
2021/01/21 05:49:11;;;;;;;2.38;0.80;;;16.10;95.50;;;;;;4958775;28;20047;-70
2021/01/21 05:51:38;;;;;;;3.42;0.95;;;15.90;96.40;;;;;;4961030;28;20278;-72
2021/01/21 05:54:05;;;;;;;2.90;0.90;;;15.80;96.30;;;;;;4960342;28;20278;-68
2021/01/21 05:56:33;;;;;;;21.80;7.90;;;15.70;96.50;;;;;;4960413;28;20029;-69
2021/01/21 05:59:00;;;;;;;2.70;1.27;;;15.80;96.20;;;;;;4958987;28;20030;-70
2021/01/21 06:01:26;;;;;;;2.67;1.10;;;15.80;95.50;;;;;;4959788;28;20445;-68
2021/01/21 06:03:54;;;;;;;4.18;1.20;;;15.60;96.10;;;;;;4960427;28;20329;-68
2021/01/21 06:06:26;;;;;;;5.80;0.75;;;15.60;95.90;;;;;;4961363;28;20061;-69
2021/01/21 06:08:53;;;;;;;5.47;1.15;;;15.50;95.50;;;;;;4959231;28;20031;-69
2021/01/21 06:11:21;;;;;;;3.45;0.85;;;15.50;96.10;;;;;;4960202;28;20054;-67
2021/01/21 06:13:48;;;;;;;5.75;0.80;;;15.60;95.40;;;;;;4961226;28;20032;-70
2021/01/21 06:16:21;;;;;;;2.88;0.68;;;15.60;95.60;;;;;;4961690;28;20608;-70
2021/01/21 06:18:47;;;;;;;1.85;0.52;;;15.40;95.90;;;;;;4960420;28;21019;-70
2021/01/21 06:21:23;;;;;;;5.07;1.08;;;15.50;95.80;;;;;;4962060;28;20031;-70
2021/01/21 06:24:04;;;;;;;2.58;0.60;;;15.60;95.70;;;;;;4961811;28;20039;-69
2021/01/21 06:26:41;;;;;;;5.78;0.82;;;15.50;95.70;;;;;;4962286;28;20027;-68
2021/01/21 06:29:11;;;;;;;3.45;0.52;;;15.50;96.00;;;;;;4961479;28;20031;-68
2021/01/21 06:31:41;;;;;;;4.03;0.65;;;15.50;95.80;;;;;;4962016;28;20026;-70
2021/01/21 06:34:17;;;;;;;5.15;0.80;;;15.60;95.60;;;;;;5459490;23;20050;-70
2021/01/21 06:36:49;;;;;;;3.60;0.77;;;15.70;95.70;;;;;;4977354;28;20030;-69
2021/01/21 06:39:25;;;;;;;2.13;0.60;;;15.60;95.40;;;;;;4977858;28;20304;-71
2021/01/21 06:41:56;;;;;;;2.55;1.30;;;15.60;95.30;;;;;;4962409;28;20045;-70
2021/01/21 06:44:24;;;;;;;1.48;0.60;;;15.50;95.70;;;;;;4962434;28;20093;-70
2021/01/21 06:46:53;;;;;;;5.07;1.35;;;15.20;96.60;;;;;;4961327;28;20027;-70
2021/01/21 06:49:21;;;;;;;3.58;1.10;;;15.00;97.50;;;;;;4959711;28;20062;-69
2021/01/21 06:51:49;;;;;;;5.90;1.25;;;14.90;97.70;;;;;;4959866;28;20638;-68
2021/01/21 06:54:17;;;;;;;1.00;0.60;;;14.80;98.10;;;;;;4961677;28;21762;-70
2021/01/21 06:56:44;;;;;;;1.08;0.68;;;14.60;98.50;;;;;;4960246;28;20151;-69
2021/01/21 06:59:11;;;;;;;3.13;0.63;;;14.50;98.70;;;;;;4962777;28;20026;-70
2021/01/21 07:01:42;;;;;;;3.28;0.80;;;14.40;98.70;;;;;;4960537;28;20034;-70
2021/01/21 07:04:17;;;;;;;6.25;0.77;;;14.50;98.70;;;;;;4959690;28;20031;-70
2021/01/21 07:06:53;;;;;;;3.60;0.73;;;14.40;98.50;;;;;;4961954;28;20118;-69
2021/01/21 07:09:25;;;;;;;3.45;0.82;;;14.40;98.70;;;;;;4960165;28;20385;-69
2021/01/21 07:12:01;;;;;;;0.98;0.70;;;14.30;99.00;;;;;;4960496;28;20031;-69
2021/01/21 07:14:34;;;;;;;6.03;0.75;;;14.20;99.40;;;;;;4962198;28;20262;-69
2021/01/21 07:17:05;;;;;;;5.70;0.88;;;14.20;99.50;;;;;;4958354;28;20026;-69
2021/01/21 07:19:39;;;;;;;5.53;1.05;;;14.10;99.60;;;;;;4959917;28;20058;-69
2021/01/21 07:22:20;;;;;;;2.45;1.15;;;14.20;99.30;;;;;;4959471;28;20034;-70
2021/01/21 07:24:55;;;;;;;1.50;0.60;;;14.30;99.00;;;;;;4958412;28;20062;-69
2021/01/21 07:27:24;;;;;;;3.42;0.90;;;14.40;99.10;;;;;;4960011;28;20038;-68
2021/01/21 07:30:10;;;;;;;;;;;14.40;99.40;;;;;;4958445;28;20034;-69
2021/01/21 07:32:37;;;;;;;4.03;0.85;;;14.30;99.50;;;;;;4958995;28;20236;-67
2021/01/21 07:35:04;;;;;;;5.57;1.00;;;14.30;99.70;;;;;;4959504;28;20054;-68
2021/01/21 07:37:45;;;;;;;6.28;0.80;;;14.30;99.60;;;;;;4957894;28;20031;-69
2021/01/21 07:40:12;;;;;;;5.40;0.70;;;14.30;99.50;;;;;;4974364;28;20590;-70
2021/01/21 07:42:39;;;;;;;4.25;0.80;;;14.30;99.60;;;;;;4960292;28;20034;-70
2021/01/21 07:45:22;;;;;;;3.30;0.90;;;14.30;99.90;;;;;;4964001;28;20351;-69
2021/01/21 07:47:53;;;;;;;4.55;1.00;;;14.30;99.90;;;;;;4964928;28;20110;-70
2021/01/21 07:50:21;;;;;;;6.90;1.02;;;14.30;99.90;;;;;;4964882;28;20031;-71
2021/01/21 07:52:59;;;;;;;5.03;0.98;;;14.30;99.90;;;;;;4963345;28;20491;-69
2021/01/21 07:55:34;;;;;;;14.00;1.20;;;14.40;99.70;;;;;;4965922;28;20039;-70
2021/01/21 07:58:20;;;;;;;5.22;0.70;;;14.40;99.70;;;;;;4966205;28;20030;-70
2021/01/21 08:00:49;;;;;;;4.95;1.00;;;14.50;99.30;;;;;;4964421;28;20397;-70
2021/01/21 08:03:26;;;;;;;3.25;1.10;;;14.50;99.30;;;;;;4965395;28;20405;-69
2021/01/21 08:06:03;;;;;;;5.22;0.90;;;14.50;99.60;;;;;;4963016;28;20122;-70
2021/01/21 08:08:29;;;;;;;4.32;0.90;;;14.40;99.80;;;;;;4964922;28;20045;-69
2021/01/21 08:11:09;;;;;;;7.25;1.13;;;14.40;99.80;;;;;;4963967;28;20071;-69
2021/01/21 08:13:36;;;;;;;6.95;1.58;;;14.40;99.90;;;;;;4964774;28;20027;-69
2021/01/21 08:16:05;;;;;;;9.50;0.90;;;14.50;99.90;;;;;;4965939;28;20023;-69
2021/01/21 08:18:35;;;;;;;5.63;0.82;;;14.50;99.90;;;;;;4964920;28;20043;-69
2021/01/21 08:21:19;;;;;;;9.00;1.23;;;14.50;99.90;;;;;;4962762;28;20023;-69
2021/01/21 08:23:59;;;;;;;5.28;1.67;;;14.40;99.90;;;;;;4964173;28;20031;-68
2021/01/21 08:26:30;;;;;;;3.15;0.90;;;14.40;99.90;;;;;;4966656;28;20088;-69
2021/01/21 08:28:58;;;;;;;8.98;1.45;;;14.40;99.90;;;;;;4963104;28;20421;-68
2021/01/21 08:31:47;;;;;;;3.20;0.90;;;14.50;99.90;;;;;;4964983;28;20030;-68
2021/01/21 08:34:24;;;;;;;7.72;1.10;;;14.70;99.90;;;;;;4963674;28;20425;-68
2021/01/21 08:37:01;;;;;;;3.97;1.48;;;14.70;99.90;;;;;;4964904;28;20083;-70
2021/01/21 08:39:27;;;;;;;8.52;1.60;;;14.70;99.90;;;;;;4962982;28;20031;-69
2021/01/21 08:41:54;;;;;;;9.77;1.20;;;14.70;99.90;;;;;;4968789;28;20058;-68
2021/01/21 08:44:21;;;;;;;5.50;0.88;;;14.60;99.90;;;;;;4965306;28;20075;-68
2021/01/21 08:47:01;;;;;;;7.18;1.27;;;14.60;99.90;;;;;;4964662;28;20057;-68
2021/01/21 08:49:34;;;;;;;9.93;1.25;;;14.70;99.90;;;;;;4963211;28;20100;-68
2021/01/21 08:52:11;;;;;;;4.10;1.20;;;14.60;99.90;;;;;;4964096;28;20071;-68
2021/01/21 08:54:37;;;;;;;6.35;1.45;;;14.70;99.90;;;;;;4963551;28;20102;-68
2021/01/21 08:57:08;;;;;;;5.45;0.93;;;14.60;99.90;;;;;;4964127;28;20450;-68
2021/01/21 08:59:36;;;;;;;5.10;1.13;;;14.70;99.90;;;;;;4963459;28;20418;-68
2021/01/21 09:02:05;;;;;;;2.88;0.88;;;14.80;99.90;;;;;;4964099;28;20174;-70
2021/01/21 09:04:37;;;;;;;4.13;1.00;;;15.00;99.90;;;;;;4963393;28;20031;-68
2021/01/21 09:07:06;;;;;;;6.55;0.88;;;15.10;99.90;;;;;;4963724;28;20488;-68
2021/01/21 09:09:37;;;;;;;7.20;1.05;;;15.20;99.90;;;;;;4963364;28;20081;-68
2021/01/21 09:12:23;;;;;;;2.53;0.90;;;15.30;99.90;;;;;;4964046;28;20030;-68
2021/01/21 09:15:04;;;;;;;4.00;1.15;;;15.30;99.90;;;;;;4963485;28;20023;-69
2021/01/21 09:17:34;;;;;;;4.82;1.10;;;15.20;99.90;;;;;;4963347;28;20050;-69
2021/01/21 09:20:03;;;;;;;5.45;1.15;;;15.20;99.90;;;;;;4963777;28;20356;-69
2021/01/21 09:22:41;;;;;;;;;;;15.10;99.90;;;;;;4964279;28;20026;-69
2021/01/21 09:25:09;;;;;;;4.70;1.15;;;15.00;99.90;;;;;;4962112;28;20339;-68
2021/01/21 09:27:39;;;;;;;10.10;1.17;;;14.80;99.90;;;;;;4963413;28;20039;-68
2021/01/21 09:30:15;;;;;;;7.38;1.55;;;14.70;99.90;;;;;;4966356;28;20309;-68
2021/01/21 09:32:43;;;;;;;7.45;0.95;;;14.70;99.90;;;;;;4962934;28;20027;-69
2021/01/21 09:35:13;;;;;;;7.50;1.17;;;14.80;99.90;;;;;;4963071;28;20049;-68
2021/01/21 09:37:46;;;;;;;8.15;1.35;;;14.90;99.90;;;;;;4963318;28;20353;-68
2021/01/21 09:40:19;;;;;;;5.93;1.23;;;14.80;99.90;;;;;;4962927;28;20293;-67
2021/01/21 09:42:46;;;;;;;4.40;1.38;;;14.60;99.90;;;;;;4963424;28;20062;-69
2021/01/21 09:45:13;;;;;;;8.38;1.08;;;14.70;99.90;;;;;;4961723;28;20504;-68
2021/01/21 09:47:40;;;;;;;5.10;2.20;;;14.80;99.90;;;;;;4961167;28;20034;-68
2021/01/21 09:50:09;;;;;;;7.97;1.08;;;14.90;99.90;;;;;;4960453;28;20026;-68
2021/01/21 09:52:36;;;;;;;6.25;1.30;;;14.90;99.90;;;;;;4962219;28;20085;-70
2021/01/21 09:55:05;;;;;;;5.78;1.13;;;14.90;99.90;;;;;;4963682;28;20177;-69
2021/01/21 09:57:32;;;;;;;10.02;1.33;;;14.90;99.90;;;;;;4962380;28;20035;-68
2021/01/21 09:59:58;;;;;;;5.32;1.42;;;14.90;99.90;;;;;;4962134;28;20062;-68
2021/01/21 10:02:26;;;;;;;1.88;0.93;;;14.90;99.90;;;;;;4962355;28;20341;-70
2021/01/21 10:04:52;;;;;;;4.30;1.60;;;14.80;99.90;;;;;;4962728;28;20022;-68
2021/01/21 10:07:19;;;;;;;7.77;1.73;;;14.90;99.90;;;;;;4960445;28;20065;-68
2021/01/21 10:09:45;;;;;;;11.60;0.98;;;14.90;99.90;;;;;;4962632;28;20027;-68
2021/01/21 10:12:12;;;;;;;7.35;1.48;;;15.00;99.90;;;;;;4961704;28;20034;-68
2021/01/21 10:14:39;;;;;;;9.05;1.58;;;15.00;99.90;;;;;;4961503;28;20023;-68
2021/01/21 10:17:09;;;;;;;8.55;1.45;;;14.90;99.90;;;;;;4961900;28;20034;-68
2021/01/21 10:19:37;;;;;;;5.57;1.20;;;14.70;99.90;;;;;;4962994;28;20317;-67
2021/01/21 10:22:07;;;;;;;9.82;1.40;;;14.80;99.90;;;;;;4962637;28;20031;-67
2021/01/21 10:24:34;;;;;;;4.40;1.30;;;15.00;99.90;;;;;;4962263;28;20023;-68
2021/01/21 10:27:01;;;;;;;3.53;1.20;;;15.00;99.90;;;;;;4962757;28;20118;-69
2021/01/21 10:29:28;;;;;;;4.85;1.00;;;15.10;99.90;;;;;;4960654;28;20043;-69
2021/01/21 10:31:55;;;;;;;5.15;1.50;;;15.10;99.90;;;;;;4977934;28;20038;-69
2021/01/21 10:34:23;;;;;;;4.72;1.05;;;15.00;99.90;;;;;;4961115;28;20050;-69
2021/01/21 10:36:49;;;;;;;3.13;1.33;;;15.10;99.90;;;;;;4961815;28;20093;-69
2021/01/21 10:39:16;;;;;;;5.57;1.85;;;15.10;99.90;;;;;;4961155;28;20071;-69
2021/01/21 10:41:43;;;;;;;8.93;2.30;;;15.10;99.90;;;;;;4961815;28;20464;-69
2021/01/21 10:44:10;;;;;;;4.55;1.38;;;14.80;99.90;;;;;;4961717;28;20045;-69
2021/01/21 10:46:36;;;;;;;4.82;0.90;;;14.60;99.90;;;;;;4962304;28;20374;-69
2021/01/21 10:49:04;;;;;;;5.63;1.30;;;14.50;99.90;;;;;;4961250;28;20027;-69
2021/01/21 10:51:30;;;;;;;8.20;1.25;;;14.60;99.90;;;;;;4959918;28;20051;-69
2021/01/21 10:53:57;;;;;;;7.95;1.63;;;14.80;99.90;;;;;;4961179;28;20409;-67
2021/01/21 10:56:24;;;;;;;5.18;1.45;;;14.70;99.90;;;;;;4961651;28;20062;-68
2021/01/21 10:58:50;;;;;;;9.65;1.38;;;14.50;99.90;;;;;;4961618;28;20069;-68
2021/01/21 11:01:17;;;;;;;2.95;1.10;;;14.50;99.90;;;;;;4961317;28;20122;-68
2021/01/21 11:03:44;;;;;;;6.13;1.30;;;14.40;99.90;;;;;;4962413;28;20030;-68
2021/01/21 11:06:10;;;;;;;4.75;1.13;;;14.20;99.90;;;;;;4961607;28;20037;-69
2021/01/21 11:08:37;;;;;;;7.00;1.40;;;14.10;99.90;;;;;;4960633;28;20073;-69
2021/01/21 11:11:04;;;;;;;4.18;1.00;;;13.90;99.90;;;;;;4960406;28;20034;-68
2021/01/21 11:13:32;;;;;;;5.07;1.17;;;13.80;99.90;;;;;;4960734;28;20114;-69
2021/01/21 11:15:59;;;;;;;5.97;1.30;;;13.70;99.90;;;;;;4960338;28;20258;-69
2021/01/21 11:18:26;;;;;;;5.80;1.48;;;13.60;99.90;;;;;;4960377;28;20283;-69
2021/01/21 11:20:52;;;;;;;3.88;1.42;;;13.60;99.90;;;;;;4962311;28;20035;-69
2021/01/21 11:23:19;;;;;;;9.18;1.80;;;13.60;99.90;;;;;;4961800;28;20094;-69
2021/01/21 11:25:46;;;;;;;10.65;1.52;;;13.50;99.90;;;;;;4960230;28;20027;-70
2021/01/21 11:28:12;;;;;;;3.13;1.38;;;13.40;99.90;;;;;;4961472;28;20023;-69
2021/01/21 11:30:39;;;;;;;4.45;1.23;;;13.40;99.90;;;;;;4961708;28;20027;-70
2021/01/21 11:33:06;;;;;;;4.65;1.40;;;13.30;99.90;;;;;;4961489;28;20046;-68
2021/01/21 11:35:32;;;;;;;3.05;1.10;;;13.30;99.90;;;;;;4960119;28;20051;-68
2021/01/21 11:37:59;;;;;;;8.77;2.22;;;13.30;99.90;;;;;;4960390;28;20038;-68
2021/01/21 11:40:26;;;;;;;4.32;1.40;;;13.30;99.90;;;;;;4960290;28;20031;-67
2021/01/21 11:42:52;;;;;;;4.38;1.60;;;13.30;99.90;;;;;;4961294;28;20283;-68
2021/01/21 11:45:19;;;;;;;4.80;1.65;;;13.20;99.90;;;;;;4961838;28;20031;-68
2021/01/21 11:47:46;;;;;;;2.08;1.35;;;13.20;99.90;;;;;;4961028;28;20066;-68
2021/01/21 11:50:15;;;;;;;4.65;2.05;;;13.20;99.90;;;;;;4960470;28;20038;-68
2021/01/21 11:52:42;;;;;;;7.95;1.83;;;13.20;99.90;;;;;;4961642;28;20023;-68
2021/01/21 11:55:11;;;;;;;9.15;1.98;;;13.00;99.90;;;;;;4960857;28;20089;-68
2021/01/21 11:57:38;;;;;;;8.10;1.92;;;12.90;99.90;;;;;;4961863;28;20033;-69
2021/01/21 12:00:07;;;;;;;11.88;3.20;;;12.80;99.90;;;;;;4960864;28;20041;-68
2021/01/21 12:02:34;;;;;;;3.78;1.70;;;12.80;99.90;;;;;;4961092;28;20656;-68
2021/01/21 12:05:00;;;;;;;10.40;1.88;;;13.00;99.90;;;;;;4962034;28;20117;-68
2021/01/21 12:07:27;;;;;;;6.65;2.03;;;13.10;99.90;;;;;;4958191;28;20023;-72
2021/01/21 12:09:54;;;;;;;5.30;2.05;;;13.10;99.90;;;;;;4959707;28;20038;-68
2021/01/21 12:12:21;;;;;;;8.65;1.92;;;13.10;99.90;;;;;;4959781;28;20031;-70
2021/01/21 12:14:47;;;;;;;11.57;2.00;;;12.90;99.90;;;;;;4961786;28;20022;-70
2021/01/21 12:17:14;;;;;;;5.63;1.85;;;12.90;99.90;;;;;;4960099;28;20038;-68
2021/01/21 12:19:40;;;;;;;5.60;2.58;;;13.00;99.90;;;;;;4961706;28;20026;-71
2021/01/21 12:22:07;;;;;;;5.78;2.33;;;13.10;99.90;;;;;;4960878;28;20031;-68
2021/01/21 12:24:34;;;;;;;6.47;2.15;;;13.10;99.90;;;;;;4963958;28;20054;-68
2021/01/21 12:27:00;;;;;;;11.40;2.30;;;13.20;99.90;;;;;;4960657;28;20102;-70
2021/01/21 12:29:27;;;;;;;9.88;1.67;;;13.10;99.90;;;;;;4962118;28;20054;-70
2021/01/21 12:31:54;;;;;;;6.13;1.77;;;13.10;99.90;;;;;;4963270;28;20023;-69
2021/01/21 12:34:20;;;;;;;9.80;1.90;;;13.20;99.90;;;;;;4964562;28;20039;-70
2021/01/21 12:36:47;;;;;;;3.67;1.73;;;13.20;99.90;;;;;;4962794;28;20027;-69
2021/01/21 12:39:13;;;;;;;4.22;1.70;;;13.10;99.90;;;;;;4963268;28;20110;-70
2021/01/21 12:41:40;;;;;;;6.68;1.75;;;13.10;99.90;;;;;;4964403;28;20065;-70
2021/01/21 12:44:07;;;;;;;5.28;1.77;;;13.00;99.90;;;;;;4964062;28;20057;-69
2021/01/21 12:46:33;;;;;;;5.90;2.38;;;12.80;99.90;;;;;;4964225;28;20038;-71
2021/01/21 12:49:00;;;;;;;4.50;1.98;;;12.60;99.90;;;;;;4963420;28;20042;-68
2021/01/21 12:51:27;;;;;;;4.20;1.67;;;12.60;99.90;;;;;;4962958;28;20023;-70
2021/01/21 12:53:53;;;;;;;10.43;2.88;;;12.70;99.90;;;;;;4963467;28;20034;-68
2021/01/21 12:56:20;;;;;;;4.13;1.55;;;12.70;99.90;;;;;;4964061;28;20027;-68
2021/01/21 12:58:47;;;;;;;7.03;1.90;;;12.40;99.90;;;;;;4963692;28;20027;-69
2021/01/21 13:01:13;;;;;;;13.77;1.77;;;12.30;99.90;;;;;;4964123;28;20398;-69
2021/01/21 13:03:40;;;;;;;2.70;1.38;;;12.40;99.90;;;;;;4961422;28;20125;-69